createdAt,value
2022-08-08T00:00:52.667Z,70.53
2022-08-08T00:00:53.877Z,70.81
2022-08-08T00:02:03.734Z,71.01
2022-08-08T00:02:34.134Z,70.43
2022-08-08T00:03:34.093Z,71.30
2022-08-08T00:04:34.079Z,71.48
2022-08-08T00:05:44.271Z,71.48
2022-08-08T00:06:35.332Z,71.77
2022-08-08T00:07:33.877Z,71.58
2022-08-08T00:08:33.828Z,71.58
2022-08-08T00:09:33.778Z,71.87
2022-08-08T00:10:33.741Z,71.39
2022-08-08T00:11:46.931Z,71.39
2022-08-08T00:12:33.631Z,70.91
2022-08-08T00:14:17.463Z,70.81
2022-08-08T00:14:58.905Z,70.72
2022-08-08T00:15:56.533Z,70.91
2022-08-08T00:16:33.426Z,70.72
2022-08-08T00:17:48.253Z,70.91
2022-08-08T00:18:33.342Z,70.81
2022-08-08T00:19:33.274Z,70.56
2022-08-08T00:20:33.226Z,70.62
2022-08-08T00:21:39.605Z,70.53
2022-08-08T00:22:33.139Z,70.66
2022-08-08T00:23:42.925Z,70.66
2022-08-08T00:24:33.023Z,69.95
2022-08-08T00:25:44.770Z,69.86
2022-08-08T00:26:32.928Z,70.43
2022-08-08T00:27:35.657Z,70.24
2022-08-08T00:28:35.016Z,70.81
2022-08-08T00:29:46.069Z,71.87
2022-08-08T00:30:32.741Z,71.58
2022-08-08T00:32:29.157Z,71.55
2022-08-08T00:32:35.625Z,72.25
2022-08-08T00:34:17.018Z,72.02
2022-08-08T00:34:32.515Z,71.93
2022-08-08T00:35:34.189Z,71.93
2022-08-08T00:36:35.156Z,71.83
2022-08-08T00:37:47.484Z,72.02
2022-08-08T00:38:51.936Z,72.06
2022-08-08T00:39:36.276Z,72.73
2022-08-08T00:41:11.042Z,72.16
2022-08-08T00:41:55.316Z,72.25
2022-08-08T00:42:36.668Z,73.21
2022-08-08T00:43:40.030Z,72.79
2022-08-08T00:44:32.015Z,72.41
2022-08-08T00:45:32.361Z,73.08
2022-08-08T00:46:32.052Z,72.22
2022-08-08T00:47:36.841Z,72.60
2022-08-08T00:48:33.816Z,73.08
2022-08-08T00:49:32.345Z,73.27
2022-08-08T00:50:31.712Z,73.08
2022-08-08T00:51:38.269Z,72.88
2022-08-08T00:52:39.262Z,73.27
2022-08-08T00:53:31.558Z,73.46
2022-08-08T00:54:31.521Z,73.08
2022-08-08T00:55:52.617Z,72.69
2022-08-08T00:56:31.406Z,73.08
2022-08-08T00:57:36.026Z,72.56
2022-08-08T00:58:31.849Z,73.80
2022-08-08T00:59:44.669Z,73.65
2022-08-08T01:00:34.513Z,73.27
2022-08-08T01:01:38.287Z,73.23
2022-08-08T01:03:57.873Z,72.79
2022-08-08T01:03:59.069Z,73.84
2022-08-08T01:04:30.996Z,73.36
2022-08-08T01:05:42.553Z,73.46
2022-08-08T01:06:30.927Z,73.36
2022-08-08T01:07:34.508Z,73.36
2022-08-08T01:08:30.810Z,73.55
2022-08-08T01:09:36.716Z,73.65
2022-08-08T01:10:30.693Z,73.27
2022-08-08T01:11:30.644Z,73.55
2022-08-08T01:12:31.213Z,73.94
2022-08-08T01:13:43.619Z,73.75
2022-08-08T01:14:54.401Z,73.65
2022-08-08T01:15:43.797Z,73.61
2022-08-08T01:16:30.399Z,74.28
2022-08-08T01:17:34.940Z,74.38
2022-08-08T01:18:53.418Z,74.48
2022-08-08T01:19:52.630Z,74.66
2022-08-08T01:20:30.187Z,75.34
2022-08-08T01:21:34.960Z,75.71
2022-08-08T01:22:32.416Z,76.57
2022-08-08T01:24:03.298Z,76.77
2022-08-08T01:24:29.993Z,76.57
2022-08-08T01:25:40.570Z,76.57
2022-08-08T01:26:29.880Z,76.86
2022-08-08T01:27:33.286Z,76.92
2022-08-08T01:28:29.793Z,76.73
2022-08-08T01:29:35.348Z,77.50
2022-08-08T01:30:31.275Z,76.10
2022-08-08T01:32:06.354Z,76.35
2022-08-08T01:32:30.360Z,76.29
2022-08-08T01:33:33.832Z,76.57
2022-08-08T01:34:29.489Z,76.48
2022-08-08T01:35:30.623Z,76.57
2022-08-08T01:36:29.370Z,76.39
2022-08-08T01:37:56.941Z,76.20
2022-08-08T01:38:29.279Z,76.20
2022-08-08T01:39:34.930Z,76.48
2022-08-08T01:40:29.168Z,76.54
2022-08-08T01:41:34.200Z,76.73
2022-08-08T01:42:35.565Z,76.35
2022-08-08T01:43:34.485Z,76.45
2022-08-08T01:44:28.961Z,76.82
2022-08-08T01:45:28.909Z,76.35
2022-08-08T01:46:28.860Z,76.92
2022-08-08T01:48:07.139Z,76.10
2022-08-08T01:48:31.480Z,76.57
2022-08-08T01:49:37.523Z,76.86
2022-08-08T01:50:30.141Z,76.29
2022-08-08T01:51:30.345Z,75.91
2022-08-08T01:52:51.617Z,75.81
2022-08-08T01:55:15.955Z,75.71
2022-08-08T01:55:27.014Z,75.62
2022-08-08T01:56:27.108Z,75.81
2022-08-08T01:56:34.080Z,76.29
2022-08-08T01:58:11.261Z,76.39
2022-08-08T01:58:32.280Z,76.86
2022-08-08T01:59:38.250Z,76.73
2022-08-08T02:00:28.158Z,76.35
2022-08-08T02:01:59.667Z,76.82
2022-08-08T02:02:34.784Z,76.92
2022-08-08T02:03:55.115Z,76.64
2022-08-08T02:04:28.313Z,76.45
2022-08-08T02:05:33.801Z,77.01
2022-08-08T02:06:32.892Z,76.64
2022-08-08T02:07:27.781Z,76.73
2022-08-08T02:08:34.031Z,78.16
2022-08-08T02:10:02.454Z,77.97
2022-08-08T02:10:30.182Z,77.30
2022-08-08T02:11:58.776Z,77.59
2022-08-08T02:12:27.742Z,77.97
2022-08-08T02:13:54.790Z,77.50
2022-08-08T02:14:27.439Z,77.40
2022-08-08T02:15:27.371Z,77.01
2022-08-08T02:16:28.363Z,77.01
2022-08-08T02:17:35.298Z,77.84
2022-08-08T02:18:27.230Z,78.41
2022-08-08T02:20:07.189Z,78.79
2022-08-08T02:21:00.946Z,78.89
2022-08-08T02:21:27.068Z,79.17
2022-08-08T02:22:28.162Z,78.70
2022-08-08T02:23:32.015Z,78.99
2022-08-08T02:24:26.923Z,79.17
2022-08-08T02:25:32.736Z,78.99
2022-08-08T02:26:26.817Z,78.99
2022-08-08T02:27:26.763Z,79.17
2022-08-08T02:28:35.292Z,79.17
2022-08-08T02:29:26.674Z,79.27
2022-08-08T02:30:26.613Z,79.17
2022-08-08T02:31:54.174Z,79.08
2022-08-08T02:32:26.571Z,79.36
2022-08-08T02:33:41.382Z,79.17
2022-08-08T02:34:27.515Z,79.27
2022-08-08T02:35:28.339Z,79.94
2022-08-08T02:36:26.292Z,79.94
2022-08-08T02:37:52.486Z,80.80
2022-08-08T02:38:30.272Z,80.99
2022-08-08T02:39:40.321Z,81.04
2022-08-08T02:40:28.154Z,80.70
2022-08-08T02:41:58.636Z,81.04
2022-08-08T02:42:36.291Z,80.61
2022-08-08T02:44:37.848Z,80.61
2022-08-08T02:44:39.375Z,80.41
2022-08-08T02:45:25.828Z,80.51
2022-08-08T02:46:25.898Z,80.41
2022-08-08T02:47:25.732Z,79.94
2022-08-08T02:48:27.329Z,79.56
2022-08-08T02:49:38.129Z,80.41
2022-08-08T02:50:25.571Z,80.19
2022-08-08T02:51:30.418Z,80.61
2022-08-08T02:52:35.079Z,80.47
2022-08-08T02:53:25.417Z,79.75
2022-08-08T02:54:25.950Z,79.94
2022-08-08T02:55:25.314Z,79.65
2022-08-08T02:56:25.260Z,79.94
2022-08-08T02:57:25.207Z,79.56
2022-08-08T02:58:26.577Z,79.65
2022-08-08T02:59:35.901Z,79.56
2022-08-08T03:00:29.573Z,79.85
2022-08-08T03:01:25.089Z,80.61
2022-08-08T03:02:30.136Z,80.41
2022-08-08T03:05:00.829Z,80.51
2022-08-08T03:05:02.762Z,80.61
2022-08-08T03:05:24.798Z,80.61
2022-08-08T03:06:34.211Z,79.65
2022-08-08T03:07:24.695Z,79.85
2022-08-08T03:08:24.657Z,80.32
2022-08-08T03:09:24.607Z,80.32
2022-08-08T03:10:33.535Z,80.22
2022-08-08T03:11:48.085Z,80.41
2022-08-08T03:12:36.014Z,80.28
2022-08-08T03:13:33.910Z,80.61
2022-08-08T03:15:56.874Z,80.76
2022-08-08T03:15:58.956Z,81.33
2022-08-08T03:16:34.324Z,80.95
2022-08-08T03:17:38.936Z,81.71
2022-08-08T03:18:31.106Z,82.57
2022-08-08T03:19:24.074Z,82.57
2022-08-08T03:20:24.036Z,82.72
2022-08-08T03:21:27.099Z,83.39
2022-08-08T03:22:38.853Z,83.67
2022-08-08T03:23:23.882Z,83.58
2022-08-08T03:24:23.813Z,83.39
2022-08-08T03:25:23.787Z,83.11
2022-08-08T03:26:23.713Z,83.67
2022-08-08T03:27:27.245Z,83.48
2022-08-08T03:28:23.628Z,83.39
2022-08-08T03:29:38.228Z,83.01
2022-08-08T03:30:23.505Z,83.29
2022-08-08T03:31:25.357Z,83.01
2022-08-08T03:32:23.512Z,82.91
2022-08-08T03:33:56.355Z,83.29
2022-08-08T03:34:23.295Z,82.53
2022-08-08T03:35:23.258Z,83.20
2022-08-08T03:36:27.718Z,83.39
2022-08-08T03:38:53.472Z,83.11
2022-08-08T03:38:58.562Z,83.48
2022-08-08T03:39:23.074Z,83.62
2022-08-08T03:40:30.236Z,82.86
2022-08-08T03:42:13.378Z,83.14
2022-08-08T03:42:30.301Z,83.14
2022-08-08T03:43:22.834Z,83.72
2022-08-08T03:44:25.623Z,83.14
2022-08-08T03:46:05.603Z,83.14
2022-08-08T03:46:25.526Z,83.14
2022-08-08T03:47:22.622Z,82.57
2022-08-08T03:49:09.417Z,82.95
2022-08-08T03:49:58.607Z,83.24
2022-08-08T03:50:24.451Z,83.62
2022-08-08T03:51:40.211Z,83.62
2022-08-08T03:52:22.361Z,83.34
2022-08-08T03:53:37.970Z,83.24
2022-08-08T03:54:41.853Z,83.91
2022-08-08T03:55:57.670Z,83.39
2022-08-08T03:56:31.825Z,83.62
2022-08-08T03:58:33.516Z,83.24
2022-08-08T03:58:35.547Z,83.24
2022-08-08T03:59:22.646Z,83.72
2022-08-08T04:00:21.950Z,83.58
2022-08-08T04:01:24.252Z,83.72
2022-08-08T04:02:33.297Z,82.76
2022-08-08T04:03:25.944Z,83.05
2022-08-08T04:04:23.174Z,82.76
2022-08-08T04:05:28.106Z,83.62
2022-08-08T04:06:21.634Z,83.24
2022-08-08T04:07:21.581Z,83.34
2022-08-08T04:08:32.852Z,83.81
2022-08-08T04:09:21.475Z,82.76
2022-08-08T04:10:21.441Z,83.14
2022-08-08T04:11:23.556Z,83.11
2022-08-08T04:12:21.331Z,83.53
2022-08-08T04:13:21.299Z,83.62
2022-08-08T04:14:34.894Z,83.96
2022-08-08T04:15:22.099Z,83.67
2022-08-08T04:16:21.111Z,83.96
2022-08-08T04:17:46.601Z,83.77
2022-08-08T04:18:21.025Z,83.87
2022-08-08T04:19:25.007Z,84.16
2022-08-08T04:20:20.903Z,84.16
2022-08-08T04:21:23.215Z,84.06
2022-08-08T04:22:24.105Z,83.77
2022-08-08T04:23:20.760Z,83.87
2022-08-08T04:24:28.936Z,83.87
2022-08-08T04:25:20.647Z,84.72
2022-08-08T04:26:20.593Z,84.44
2022-08-08T04:28:01.406Z,85.21
2022-08-08T04:28:36.263Z,84.44
2022-08-08T04:29:20.439Z,85.01
2022-08-08T04:30:20.385Z,84.63
2022-08-08T04:31:20.332Z,84.92
2022-08-08T04:32:30.344Z,84.44
2022-08-08T04:33:20.242Z,85.01
2022-08-08T04:34:20.200Z,85.21
2022-08-08T04:35:22.423Z,85.11
2022-08-08T04:36:20.088Z,85.39
2022-08-08T04:37:20.017Z,85.11
2022-08-08T04:38:21.510Z,85.49
2022-08-08T04:40:05.869Z,86.06
2022-08-08T04:40:24.071Z,85.68
2022-08-08T04:41:21.415Z,85.39
2022-08-08T04:42:19.760Z,85.87
2022-08-08T04:43:19.719Z,85.97
2022-08-08T04:44:19.751Z,85.49
2022-08-08T04:45:19.621Z,85.68
2022-08-08T04:46:19.555Z,85.58
2022-08-08T04:47:19.512Z,86.06
2022-08-08T04:48:21.985Z,85.30
2022-08-08T04:49:19.395Z,85.97
2022-08-08T04:50:25.319Z,84.92
2022-08-08T04:51:23.424Z,85.97
2022-08-08T04:52:19.243Z,85.11
2022-08-08T04:54:27.603Z,85.11
2022-08-08T04:54:40.374Z,84.86
2022-08-08T04:55:19.082Z,86.01
2022-08-08T04:56:19.029Z,85.72
2022-08-08T04:57:18.976Z,85.72
2022-08-08T04:58:18.949Z,86.01
2022-08-08T04:59:18.873Z,85.25
2022-08-08T05:00:19.548Z,85.72
2022-08-08T05:01:18.802Z,85.91
2022-08-08T05:02:20.238Z,86.01
2022-08-08T05:04:09.918Z,85.63
2022-08-08T05:04:18.637Z,85.82
2022-08-08T05:05:28.356Z,86.01
2022-08-08T05:06:25.627Z,85.05
2022-08-08T05:07:18.458Z,85.34
2022-08-08T05:08:18.416Z,85.25
2022-08-08T05:09:18.354Z,86.01
2022-08-08T05:10:18.302Z,85.63
2022-08-08T05:11:24.004Z,86.10
2022-08-08T05:12:20.584Z,85.63
2022-08-08T05:13:18.145Z,85.44
2022-08-08T05:14:20.607Z,85.82
2022-08-08T05:15:18.088Z,85.05
2022-08-08T05:16:53.503Z,85.91
2022-08-08T05:17:17.933Z,86.01
2022-08-08T05:18:17.884Z,85.53
2022-08-08T05:20:09.527Z,85.53
2022-08-08T05:20:17.775Z,85.53
2022-08-08T05:21:19.236Z,85.82
2022-08-08T05:22:17.932Z,86.58
2022-08-08T05:23:17.630Z,86.01
2022-08-08T05:24:17.661Z,85.72
2022-08-08T05:25:17.530Z,85.82
2022-08-08T05:26:19.813Z,85.44
2022-08-08T05:27:17.430Z,85.82
2022-08-08T05:28:48.133Z,85.53
2022-08-08T05:29:17.310Z,85.58
2022-08-08T05:30:17.270Z,85.86
2022-08-08T05:32:02.404Z,85.67
2022-08-08T05:32:17.151Z,85.38
2022-08-08T05:33:17.901Z,85.38
2022-08-08T05:34:17.048Z,85.96
2022-08-08T05:35:17.011Z,85.58
2022-08-08T05:36:25.361Z,85.86
2022-08-08T05:37:19.000Z,85.96
2022-08-08T05:38:31.861Z,85.67
2022-08-08T05:39:16.838Z,85.77
2022-08-08T05:40:16.820Z,85.29
2022-08-08T05:41:16.684Z,85.19
2022-08-08T05:42:16.632Z,85.29
2022-08-08T05:43:39.507Z,85.38
2022-08-08T05:44:16.527Z,85.19
2022-08-08T05:45:25.598Z,85.48
2022-08-08T05:46:16.427Z,85.29
2022-08-08T05:47:21.165Z,86.15
2022-08-08T05:48:16.332Z,85.24
2022-08-08T05:49:16.268Z,85.24
2022-08-08T05:50:16.528Z,84.76
2022-08-08T05:51:16.322Z,83.80
2022-08-08T05:52:16.114Z,83.70
2022-08-08T05:53:53.962Z,83.51
2022-08-08T05:54:28.103Z,83.99
2022-08-08T05:55:15.960Z,84.19
2022-08-08T05:56:15.924Z,84.19
2022-08-08T05:57:15.861Z,84.56
2022-08-08T05:58:17.580Z,85.33
2022-08-08T05:59:15.749Z,85.42
2022-08-08T06:00:23.419Z,85.05
2022-08-08T06:01:51.056Z,84.95
2022-08-08T06:02:15.610Z,85.05
2022-08-08T06:03:23.661Z,84.76
2022-08-08T06:04:23.504Z,84.85
2022-08-08T06:05:34.776Z,84.85
2022-08-08T06:06:18.145Z,84.89
2022-08-08T06:07:15.336Z,85.47
2022-08-08T06:08:28.200Z,85.85
2022-08-08T06:09:59.881Z,85.66
2022-08-08T06:10:24.598Z,85.75
2022-08-08T06:11:16.664Z,86.04
2022-08-08T06:12:18.758Z,85.75
2022-08-08T06:13:17.369Z,85.57
2022-08-08T06:14:17.721Z,85.57
2022-08-08T06:15:16.229Z,85.66
2022-08-08T06:16:14.888Z,86.04
2022-08-08T06:17:29.159Z,85.38
2022-08-08T06:18:18.980Z,85.09
2022-08-08T06:19:16.584Z,84.70
2022-08-08T06:20:16.326Z,84.80
2022-08-08T06:21:33.304Z,84.99
2022-08-08T06:23:14.510Z,84.61
2022-08-08T06:24:23.220Z,84.61
2022-08-08T06:25:14.421Z,84.61
2022-08-08T06:26:42.933Z,84.32
2022-08-08T06:27:14.303Z,84.13
2022-08-08T06:28:14.253Z,84.52
2022-08-08T06:29:49.224Z,84.08
2022-08-08T06:30:20.352Z,84.08
2022-08-08T06:31:15.444Z,83.98
2022-08-08T06:32:14.944Z,83.60
2022-08-08T06:33:15.226Z,84.27
2022-08-08T06:34:27.661Z,83.40
2022-08-08T06:36:06.335Z,83.12
2022-08-08T06:36:13.840Z,82.93
2022-08-08T06:37:24.744Z,83.12
2022-08-08T06:38:14.734Z,82.93
2022-08-08T06:39:13.720Z,83.31
2022-08-08T06:40:16.138Z,82.74
2022-08-08T06:41:15.383Z,83.22
2022-08-08T06:42:13.535Z,82.64
2022-08-08T06:43:13.482Z,82.74
2022-08-08T06:44:22.910Z,83.06
2022-08-08T06:45:13.400Z,82.49
2022-08-08T06:46:13.350Z,82.59
2022-08-08T06:47:13.273Z,82.59
2022-08-08T06:48:13.223Z,82.20
2022-08-08T06:49:13.188Z,81.92
2022-08-08T06:50:17.625Z,82.30
2022-08-08T06:51:13.084Z,82.30
2022-08-08T06:52:16.111Z,82.01
2022-08-08T06:53:17.117Z,82.49
2022-08-08T06:54:12.919Z,82.11
2022-08-08T06:55:12.882Z,82.01
2022-08-08T06:56:16.736Z,81.54
2022-08-08T06:57:12.767Z,81.54
2022-08-08T06:58:12.716Z,81.63
2022-08-08T06:59:12.682Z,81.54
2022-08-08T07:00:13.220Z,82.06
2022-08-08T07:02:17.446Z,82.06
2022-08-08T07:02:26.289Z,81.86
2022-08-08T07:03:51.622Z,81.20
2022-08-08T07:04:40.498Z,81.57
2022-08-08T07:05:20.829Z,81.77
2022-08-08T07:06:12.303Z,81.38
2022-08-08T07:07:12.597Z,81.77
2022-08-08T07:08:12.252Z,81.77
2022-08-08T07:09:15.269Z,81.77
2022-08-08T07:10:12.577Z,81.38
2022-08-08T07:11:22.513Z,81.48
2022-08-08T07:12:12.559Z,81.38
2022-08-08T07:13:11.965Z,81.33
2022-08-08T07:14:11.898Z,80.90
2022-08-08T07:15:23.150Z,81.13
2022-08-08T07:16:12.271Z,81.33
2022-08-08T07:17:31.592Z,81.62
2022-08-08T07:18:36.261Z,81.52
2022-08-08T07:19:11.652Z,81.13
2022-08-08T07:20:11.592Z,81.04
2022-08-08T07:21:19.110Z,80.94
2022-08-08T07:22:12.133Z,80.08
2022-08-08T07:23:11.443Z,80.18
2022-08-08T07:24:12.726Z,80.08
2022-08-08T07:25:14.399Z,79.99
2022-08-08T07:26:11.289Z,79.32
2022-08-08T07:27:11.351Z,79.41
2022-08-08T07:28:19.721Z,79.55
2022-08-08T07:29:11.834Z,79.45
2022-08-08T07:30:14.830Z,79.36
2022-08-08T07:31:11.035Z,79.26
2022-08-08T07:32:10.988Z,79.36
2022-08-08T07:33:10.935Z,79.26
2022-08-08T07:34:10.897Z,78.78
2022-08-08T07:35:10.834Z,78.97
2022-08-08T07:36:10.780Z,78.88
2022-08-08T07:37:12.103Z,79.01
2022-08-08T07:38:21.158Z,78.44
2022-08-08T07:39:13.214Z,78.72
2022-08-08T07:40:10.648Z,77.95
2022-08-08T07:41:16.797Z,78.15
2022-08-08T07:42:12.605Z,78.15
2022-08-08T07:43:10.443Z,77.95
2022-08-08T07:44:37.874Z,77.58
2022-08-08T07:45:10.326Z,77.76
2022-08-08T07:46:23.925Z,77.95
2022-08-08T07:47:10.225Z,77.23
2022-08-08T07:48:10.212Z,77.51
2022-08-08T07:49:10.191Z,77.42
2022-08-08T07:50:10.110Z,77.90
2022-08-08T07:51:23.238Z,77.23
2022-08-08T07:52:13.396Z,77.61
2022-08-08T07:53:09.927Z,77.13
2022-08-08T07:54:09.876Z,76.27
2022-08-08T07:55:09.827Z,76.75
2022-08-08T07:56:09.797Z,77.08
2022-08-08T07:57:10.412Z,76.69
2022-08-08T07:58:09.676Z,76.21
2022-08-08T07:59:10.426Z,76.50
2022-08-08T08:00:16.342Z,76.31
2022-08-08T08:01:09.578Z,75.67
2022-08-08T08:02:33.440Z,75.29
2022-08-08T08:03:16.854Z,74.81
2022-08-08T08:04:13.787Z,74.85
2022-08-08T08:05:14.942Z,74.81
2022-08-08T08:06:09.281Z,74.37
2022-08-08T08:07:09.329Z,73.98
2022-08-08T08:08:09.177Z,73.69
2022-08-08T08:09:09.127Z,73.88
2022-08-08T08:10:12.502Z,74.08
2022-08-08T08:11:09.028Z,74.17
2022-08-08T08:12:09.436Z,73.69
2022-08-08T08:13:08.931Z,72.86
2022-08-08T08:14:10.689Z,73.15
2022-08-08T08:15:08.828Z,72.48
2022-08-08T08:16:08.799Z,73.00
2022-08-08T08:17:08.848Z,72.71
2022-08-08T08:18:14.267Z,72.61
2022-08-08T08:19:08.633Z,72.52
2022-08-08T08:20:10.203Z,71.84
2022-08-08T08:21:13.343Z,71.30
2022-08-08T08:22:08.500Z,71.20
2022-08-08T08:23:08.449Z,71.01
2022-08-08T08:24:08.386Z,69.79
2022-08-08T08:25:08.654Z,69.64
2022-08-08T08:26:08.292Z,68.61
2022-08-08T08:27:09.317Z,67.40
2022-08-08T08:28:09.211Z,67.07
2022-08-08T08:29:08.140Z,65.37
2022-08-08T08:30:08.093Z,64.43
2022-08-08T08:31:08.042Z,63.40
2022-08-08T08:32:08.020Z,62.27
2022-08-08T08:33:11.075Z,62.11
2022-08-08T08:34:07.909Z,61.30
2022-08-08T08:35:07.862Z,60.46
2022-08-08T08:36:19.379Z,59.52
2022-08-08T08:37:08.752Z,58.58
2022-08-08T08:38:17.206Z,57.73
2022-08-08T08:39:17.191Z,56.60
2022-08-08T08:40:07.647Z,55.33
2022-08-08T08:41:13.246Z,54.97
2022-08-08T08:42:07.531Z,54.71
2022-08-08T08:43:11.857Z,54.90
2022-08-08T08:44:14.118Z,54.05
2022-08-08T08:45:20.857Z,53.40
2022-08-08T08:46:07.322Z,53.04
2022-08-08T08:47:07.293Z,52.58
2022-08-08T08:48:07.247Z,51.46
2022-08-08T08:49:07.183Z,51.07
2022-08-08T08:50:07.139Z,49.95
2022-08-08T08:51:07.091Z,48.63
2022-08-08T08:52:07.050Z,47.38
2022-08-08T08:53:53.973Z,46.55
2022-08-08T08:54:06.962Z,45.50
2022-08-08T08:55:06.912Z,44.56
2022-08-08T08:56:06.881Z,43.80
2022-08-08T08:57:15.624Z,43.62
2022-08-08T08:58:06.798Z,43.35
2022-08-08T08:59:06.733Z,42.37
2022-08-08T09:00:14.725Z,42.39
2022-08-08T09:01:10.054Z,42.19
2022-08-08T09:02:06.623Z,42.39
2022-08-08T09:03:06.562Z,43.35
2022-08-08T09:04:06.534Z,42.94
2022-08-08T09:05:06.475Z,43.02
2022-08-08T09:06:26.044Z,41.84
2022-08-08T09:07:12.057Z,42.02
2022-08-08T09:08:12.738Z,42.88
2022-08-08T09:09:07.123Z,43.27
2022-08-08T09:10:07.515Z,43.56
2022-08-08T09:11:06.283Z,43.37
2022-08-08T09:12:08.282Z,43.15
2022-08-08T09:13:06.138Z,42.97
2022-08-08T09:14:06.111Z,43.56
2022-08-08T09:15:06.409Z,42.68
2022-08-08T09:16:06.879Z,42.58
2022-08-08T09:17:12.846Z,43.07
2022-08-08T09:18:05.932Z,42.58
2022-08-08T09:19:05.902Z,42.29
2022-08-08T09:21:58.840Z,42.68
2022-08-08T09:21:59.117Z,42.76
2022-08-08T09:22:06.577Z,42.58
2022-08-08T09:23:05.717Z,41.80
2022-08-08T09:24:05.677Z,41.41
2022-08-08T09:25:05.636Z,40.82
2022-08-08T09:26:05.610Z,41.21
2022-08-08T09:27:05.553Z,41.80
2022-08-08T09:28:05.990Z,41.42
2022-08-08T09:29:08.464Z,41.03
2022-08-08T09:30:05.433Z,40.25
2022-08-08T09:31:12.794Z,40.27
2022-08-08T09:32:05.349Z,39.66
2022-08-08T09:33:55.452Z,40.35
2022-08-08T09:34:31.159Z,40.64
2022-08-08T09:35:08.279Z,40.74
2022-08-08T09:36:05.179Z,40.37
2022-08-08T09:37:37.405Z,39.88
2022-08-08T09:38:05.830Z,39.39
2022-08-08T09:39:10.326Z,38.70
2022-08-08T09:40:10.608Z,38.98
2022-08-08T09:41:04.992Z,37.79
2022-08-08T09:42:19.967Z,39.06
2022-08-08T09:43:16.340Z,40.14
2022-08-08T09:44:12.930Z,39.76
2022-08-08T09:45:08.214Z,38.86
2022-08-08T09:46:06.617Z,38.16
2022-08-08T09:47:05.369Z,39.12
2022-08-08T09:48:15.981Z,39.22
2022-08-08T09:49:41.392Z,38.51
2022-08-08T09:50:08.669Z,38.59
2022-08-08T09:51:05.387Z,40.35
2022-08-08T09:52:08.143Z,39.36
2022-08-08T09:53:23.613Z,39.75
2022-08-08T09:54:09.304Z,39.04
2022-08-08T09:55:04.401Z,39.33
2022-08-08T09:56:07.069Z,39.92
2022-08-08T09:57:04.379Z,40.82
2022-08-08T09:58:04.281Z,40.53
2022-08-08T09:59:19.975Z,39.96
2022-08-08T10:01:14.398Z,39.41
2022-08-08T10:02:12.933Z,38.96
2022-08-08T10:03:04.085Z,38.10
2022-08-08T10:04:05.349Z,38.02
2022-08-08T10:05:07.075Z,37.33
2022-08-08T10:06:04.011Z,38.31
2022-08-08T10:07:07.553Z,37.65
2022-08-08T10:08:03.868Z,37.07
2022-08-08T10:09:03.828Z,36.88
2022-08-08T10:10:07.068Z,36.70
2022-08-08T10:12:22.177Z,36.21
2022-08-08T10:12:27.034Z,36.11
2022-08-08T10:13:14.102Z,36.22
2022-08-08T10:14:05.950Z,36.03
2022-08-08T10:15:03.581Z,35.52
2022-08-08T10:16:04.113Z,36.01
2022-08-08T10:17:03.521Z,36.30
2022-08-08T10:18:10.237Z,36.09
2022-08-08T10:19:03.426Z,35.80
2022-08-08T10:20:03.921Z,35.70
2022-08-08T10:21:03.449Z,36.09
2022-08-08T10:22:03.303Z,35.70
2022-08-08T10:23:03.278Z,34.80
2022-08-08T10:24:03.378Z,35.97
2022-08-08T10:25:03.192Z,35.97
2022-08-08T10:26:03.150Z,36.18
2022-08-08T10:27:03.099Z,36.08
2022-08-08T10:28:03.059Z,35.97
2022-08-08T10:29:03.039Z,35.97
2022-08-08T10:30:04.040Z,36.09
2022-08-08T10:31:02.943Z,36.08
2022-08-08T10:32:02.919Z,36.19
2022-08-08T10:33:02.866Z,37.07
2022-08-08T10:34:18.624Z,36.32
2022-08-08T10:35:02.780Z,35.34
2022-08-08T10:36:09.290Z,34.75
2022-08-08T10:37:02.705Z,34.95
2022-08-08T10:38:02.678Z,35.34
2022-08-08T10:39:02.738Z,35.26
2022-08-08T10:40:06.946Z,34.87
2022-08-08T10:41:02.560Z,35.26
2022-08-08T10:42:14.813Z,35.36
2022-08-08T10:43:02.477Z,35.36
2022-08-08T10:44:02.427Z,35.06
2022-08-08T10:45:02.401Z,34.97
2022-08-08T10:46:02.347Z,35.14
2022-08-08T10:47:02.322Z,35.26
2022-08-08T10:48:02.271Z,34.77
2022-08-08T10:49:02.243Z,35.18
2022-08-08T10:50:04.384Z,34.39
2022-08-08T10:51:02.150Z,33.51
2022-08-08T10:52:02.110Z,34.00
2022-08-08T10:53:02.069Z,34.59
2022-08-08T10:54:02.449Z,34.30
2022-08-08T10:55:05.149Z,34.47
2022-08-08T10:56:01.955Z,34.10
2022-08-08T10:57:03.724Z,34.99
2022-08-08T10:58:01.879Z,34.89
2022-08-08T10:59:01.852Z,34.49
2022-08-08T11:00:01.800Z,33.89
2022-08-08T11:01:04.059Z,34.38
2022-08-08T11:02:02.668Z,33.98
2022-08-08T11:03:02.430Z,34.59
2022-08-08T11:04:02.437Z,34.39
2022-08-08T11:05:05.457Z,34.49
2022-08-08T11:06:01.580Z,34.31
2022-08-08T11:07:01.527Z,33.84
2022-08-08T11:08:38.865Z,34.03
2022-08-08T11:09:01.453Z,33.05
2022-08-08T11:10:01.425Z,33.36
2022-08-08T11:11:01.388Z,32.87
2022-08-08T11:12:12.778Z,32.86
2022-08-08T11:13:28.177Z,32.86
2022-08-08T11:14:01.256Z,33.05
2022-08-08T11:15:01.218Z,33.25
2022-08-08T11:16:08.004Z,32.17
2022-08-08T11:17:01.142Z,32.36
2022-08-08T11:18:02.245Z,32.07
2022-08-08T11:19:01.068Z,32.26
2022-08-08T11:20:10.789Z,32.86
2022-08-08T11:21:00.994Z,31.97
2022-08-08T11:22:00.951Z,31.97
2022-08-08T11:23:00.923Z,32.38
2022-08-08T11:24:01.988Z,31.98
2022-08-08T11:25:00.832Z,31.69
2022-08-08T11:26:00.798Z,31.98
2022-08-08T11:27:00.756Z,32.48
2022-08-08T11:28:00.733Z,31.79
2022-08-08T11:29:00.683Z,32.08
2022-08-08T11:30:19.666Z,31.98
2022-08-08T11:31:00.728Z,32.38
2022-08-08T11:32:00.566Z,32.38
2022-08-08T11:33:05.327Z,31.88
2022-08-08T11:34:02.913Z,31.98
2022-08-08T11:35:27.370Z,32.00
2022-08-08T11:36:00.415Z,31.90
2022-08-08T11:37:00.392Z,31.41
2022-08-08T11:38:35.356Z,31.70
2022-08-08T11:39:00.421Z,32.00
2022-08-08T11:40:10.105Z,31.70
2022-08-08T11:41:00.225Z,30.91
2022-08-08T11:42:00.189Z,30.91
2022-08-08T11:43:00.153Z,30.51
2022-08-08T11:44:00.622Z,31.59
2022-08-08T11:45:00.087Z,31.51
2022-08-08T11:46:14.333Z,32.20
2022-08-08T11:46:59.995Z,31.60
2022-08-08T11:48:04.208Z,31.70
2022-08-08T11:48:59.923Z,31.31
2022-08-08T11:49:59.882Z,31.11
2022-08-08T11:50:59.862Z,30.80
2022-08-08T11:51:59.812Z,30.80
2022-08-08T11:52:59.775Z,30.80
2022-08-08T11:54:02.070Z,31.39
2022-08-08T11:54:59.752Z,31.69
2022-08-08T11:55:59.672Z,30.72
2022-08-08T11:56:59.619Z,30.91
2022-08-08T11:58:00.880Z,31.60
2022-08-08T11:58:59.549Z,30.72
2022-08-08T12:00:02.577Z,30.72
2022-08-08T12:00:59.938Z,30.62
2022-08-08T12:02:21.307Z,30.43
2022-08-08T12:02:59.447Z,31.01
2022-08-08T12:03:59.813Z,30.71
2022-08-08T12:04:59.330Z,30.90
2022-08-08T12:05:59.455Z,31.10
2022-08-08T12:06:59.245Z,31.20
2022-08-08T12:07:59.225Z,31.69
2022-08-08T12:08:59.173Z,30.60
2022-08-08T12:09:59.602Z,30.90
2022-08-08T12:10:59.099Z,30.80
2022-08-08T12:11:59.053Z,31.49
2022-08-08T12:12:59.034Z,31.29
2022-08-08T12:14:03.766Z,30.80
2022-08-08T12:14:58.948Z,31.88
2022-08-08T12:15:58.913Z,32.00
2022-08-08T12:16:58.864Z,31.21
2022-08-08T12:18:00.174Z,31.21
2022-08-08T12:18:58.806Z,30.72
2022-08-08T12:19:58.753Z,30.62
2022-08-08T12:20:59.943Z,30.91
2022-08-08T12:22:08.697Z,30.32
2022-08-08T12:22:58.643Z,30.51
2022-08-08T12:23:59.634Z,30.71
2022-08-08T12:24:58.576Z,30.80
2022-08-08T12:25:58.530Z,31.59
2022-08-08T12:26:59.275Z,31.29
2022-08-08T12:27:59.172Z,31.29
2022-08-08T12:28:58.586Z,30.71
2022-08-08T12:29:58.396Z,30.90
2022-08-08T12:30:58.341Z,31.39
2022-08-08T12:31:58.309Z,31.38
2022-08-08T12:32:58.268Z,31.39
2022-08-08T12:34:02.109Z,31.87
2022-08-08T12:35:05.007Z,30.80
2022-08-08T12:35:58.157Z,31.29
2022-08-08T12:36:58.119Z,30.71
2022-08-08T12:38:02.263Z,30.60
2022-08-08T12:38:58.057Z,30.80
2022-08-08T12:40:01.744Z,30.72
2022-08-08T12:41:04.450Z,31.01
2022-08-08T12:42:01.442Z,30.82
2022-08-08T12:42:57.895Z,31.03
2022-08-08T12:44:00.794Z,30.34
2022-08-08T12:44:57.837Z,30.24
2022-08-08T12:46:03.021Z,30.15
2022-08-08T12:47:00.126Z,30.24
2022-08-08T12:48:04.891Z,29.06
2022-08-08T12:49:43.194Z,28.22
2022-08-08T12:49:57.649Z,28.86
2022-08-08T12:50:58.398Z,30.02
2022-08-08T12:52:00.593Z,30.62
2022-08-08T12:52:57.525Z,30.62